Airfield :
LOGIN :

Register | Disclaimer

   EN    FR    IT 

 










Legend :    VFR   Marginal VFR   IFR   Intensive IFR   Very Intensive IFR
Visi :
Ceiling :
>= 8 km
>= 3000ft
5 to 8 km
1000 to 3000 ft
1500m to 5 km
500 to 1000 ft
800 to 1500m
200 to 500 ft
< 800m
< 200 ft
Symbols :   Thunderstorms  Fog  Heavy snow  Heavy precipitations  Wind > 20 kt
SIGMETs :     Misc.  Thunderstorms  Icing  Turbulence  Mountain Waves  Volcanic Ashes






- Airport Elevation : 357 ft
- IATA code : TUF


LFOT - Tours

CURRENT METAR :
  • 270800Z AUTO 21015KT 6000 -DZ OVC006 08/08 Q0998 TEMPO 3000 RA BECMG 20015G30KT

EXPIRED METARs :
  • 270730Z AUTO 20015KT 3500 -RA BR OVC007/// ///TCU 08/07 Q0998 TEMPO RA BKN008 BECMG 20015G30KT
  • 270700Z AUTO 19017KT 6000 -RA OVC007/// ///TCU 07/07 Q0999 TEMPO 3000 RA BKN008 BECMG 20015G30KT
  • 270630Z AUTO 19018KT 9999 -RA OVC007/// ///CB 07/06 Q0999 TEMPO 3000 RA BKN008 BECMG 20015G30KT
  • 270600Z AUTO 19019G30KT 9999 -RA OVC007/// ///CB 06/06 Q1000 TEMPO 3000 RA BKN008
  • 270530Z AUTO 18015KT 9999 -RADZ OVC008/// ///TCU 06/05 Q1001 BECMG 27020G35KT RA SCT014 BKN020

TAF TAF LFOT
Valid from the 27 at 06:00 until the 28 at 06:00 UTC


270500Z 2706/2806 20015G30KT 9999 BKN016
TEMPO 2706/2710 3000 RA BKN008
PROB40
TEMPO 2710/2715 27020G40KT
PROB30
TEMPO 2711/2715 4000 -SHRA SCT020TCU
BECMG 2717/2719 30006KT



MET'MAP, your aeronautical weather chart ! - Copyright ORBIFLY December 2007 - Disclaimer

ORBIFLY MET'MAP TEAM :

Programming & Development : Alexandra Zaïnal
Concept & original design : Baudouin d'Aumeries
Assistance for programming : Marc-Olivier Méhu
Technical & hardware support : Manuel Goepfert

Contact : metmap@orbifly.com




SOURCES & CREDITS :

   NOAA